Accueil
METAR-TAF:

METAR-TAF

Aéroports :

Aéroport international de Bahreïn

Bahreïn, Bahreïn

latitude: 26-16N, longitude: 050-39E, altitude: 2 m

Observation

Le bulletin a été fait il y a 18 minutes, à 22:00 UTC
Vent 4 kt de ouest/nord-ouest
Température 18°C
Humidité 68%
Pression 1014 hPa
Visibilité 10 km ou plus
pas de nuages en-dessous de 1500 mètres et pas de cumulonimbus.

METAR: OBBI 282200Z 30004KT CAVOK 18/12 Q1014 NOSIG

Heure: 01:18 (22:18 UTC)

Prévision

Le bulletin a été fait il y a 5 heures et 18 minutes, à 17:00 UTC
Prévision valable du 28 à 18 UTC au 01 à 00 UTC
Vent 8 kt de nord-ouest
Visibilité: 8000 m
Quelques nuages à une hauteur de 2500 ft
Evoluant progressivement
du 29 à 13 UTC au 29 à 15 UTC
Vent 8 kt de est

TAF: OBBI 281700Z 2818/0100 32008KT 8000 FEW025 BECMG 2913/2915 10008KT

Observations et prévisions météorologiques de plus de 4000 aéroports (messages METAR et TAF).

Les stations disponibles sont représentées par des disques jaunes et rouges sur la carte.

Passer la souris dessus pour voir le nom de la station.

Cliquer dessus pour voir les observations et prévisions météorologiques.

Pour changer de carte: cliquez sur les boutons verts avec une croix noire pour zoomer, sur le bouton vert avec un tiret pour effectuer un zoom arrière, ou sur les flèches vertes pour les cartes adjacentes.


METAR-TAF: